createdAt,value
2018-10-07T00:00:53.941Z,86.80
2018-10-07T00:03:30.127Z,86.60
2018-10-07T00:06:06.465Z,86.50
2018-10-07T00:08:42.468Z,86.90
2018-10-07T00:11:18.659Z,87.20
2018-10-07T00:13:54.863Z,87.50
2018-10-07T00:16:30.939Z,87.30
2018-10-07T00:19:07.167Z,87.40
2018-10-07T00:21:43.275Z,87.50
2018-10-07T00:24:19.474Z,87.70
2018-10-07T00:26:55.645Z,88.10
2018-10-07T00:29:31.814Z,87.80
2018-10-07T00:32:14.011Z,87.90
2018-10-07T00:34:50.211Z,87.10
2018-10-07T00:37:26.391Z,87.00
2018-10-07T00:40:02.578Z,86.70
2018-10-07T00:42:38.616Z,87.20
2018-10-07T00:45:14.846Z,87.30
2018-10-07T00:47:50.946Z,87.80
2018-10-07T00:50:27.119Z,88.40
2018-10-07T00:53:03.225Z,89.00
2018-10-07T00:55:39.387Z,89.70
2018-10-07T00:58:15.502Z,89.30
2018-10-07T01:00:51.557Z,89.20
2018-10-07T01:03:27.692Z,89.20
2018-10-07T01:06:03.859Z,89.40
2018-10-07T01:08:40.041Z,89.10
2018-10-07T01:11:16.160Z,88.90
2018-10-07T01:13:52.347Z,88.40
2018-10-07T01:16:28.539Z,88.70
2018-10-07T01:19:04.734Z,89.30
2018-10-07T01:21:40.924Z,90.10
2018-10-07T01:24:17.015Z,90.10
2018-10-07T01:26:53.278Z,89.90
2018-10-07T01:29:29.510Z,90.60
2018-10-07T01:32:06.683Z,90.80
2018-10-07T01:34:42.870Z,89.70
2018-10-07T01:37:18.927Z,88.80
2018-10-07T01:39:54.987Z,88.80
2018-10-07T01:42:31.109Z,88.90
2018-10-07T01:45:07.271Z,89.70
2018-10-07T01:47:43.422Z,89.20
2018-10-07T01:50:19.528Z,88.90
2018-10-07T01:52:55.685Z,88.80
2018-10-07T01:55:31.733Z,89.20
2018-10-07T01:58:07.814Z,89.80
2018-10-07T02:00:43.982Z,90.40
2018-10-07T02:03:19.993Z,91.50
2018-10-07T02:05:56.180Z,92.30
2018-10-07T02:08:32.341Z,92.50
2018-10-07T02:11:08.639Z,92.40
2018-10-07T02:13:44.640Z,92.50
2018-10-07T02:16:20.814Z,92.50
2018-10-07T02:18:56.937Z,93.00
2018-10-07T02:21:33.428Z,92.90
2018-10-07T02:24:09.465Z,92.80
2018-10-07T02:26:45.656Z,92.80
2018-10-07T02:29:21.720Z,92.60
2018-10-07T02:31:57.691Z,93.50
2018-10-07T02:34:33.836Z,93.10
2018-10-07T02:37:10.017Z,93.90
2018-10-07T02:39:46.158Z,94.00
2018-10-07T02:42:22.284Z,95.20
2018-10-07T02:44:58.476Z,95.20
2018-10-07T02:47:34.741Z,94.80
2018-10-07T02:50:20.489Z,95.30
2018-10-07T02:52:57.381Z,96.10
2018-10-07T02:55:33.393Z,96.00
2018-10-07T02:58:10.174Z,96.10
2018-10-07T03:00:46.292Z,96.10
2018-10-07T03:03:22.501Z,96.30
2018-10-07T03:05:58.627Z,96.70
2018-10-07T03:08:34.805Z,97.00
2018-10-07T03:11:11.049Z,97.00
2018-10-07T03:13:47.236Z,97.30
2018-10-07T03:16:23.353Z,97.70
2018-10-07T03:18:59.460Z,97.50
2018-10-07T03:21:35.686Z,96.70
2018-10-07T03:24:11.695Z,97.40
2018-10-07T03:26:47.799Z,97.60
2018-10-07T03:29:24.072Z,98.20
2018-10-07T03:32:00.247Z,99.20
2018-10-07T03:34:36.401Z,99.90
2018-10-07T03:37:12.629Z,99.90
2018-10-07T03:39:48.803Z,99.90
2018-10-07T03:42:24.971Z,99.30
2018-10-07T03:45:01.110Z,99.20
2018-10-07T03:47:37.275Z,98.60
2018-10-07T03:50:13.308Z,98.60
2018-10-07T03:52:49.527Z,98.10
2018-10-07T03:55:25.570Z,98.20
2018-10-07T03:58:01.716Z,98.20
2018-10-07T04:00:37.918Z,98.10
2018-10-07T04:03:14.116Z,98.30
2018-10-07T04:05:50.222Z,98.70
2018-10-07T04:08:26.273Z,98.50
2018-10-07T04:11:02.316Z,98.30
2018-10-07T04:13:38.505Z,98.70
2018-10-07T04:16:14.672Z,99.50
2018-10-07T04:18:50.918Z,99.90
2018-10-07T04:21:27.058Z,99.90
2018-10-07T04:24:03.833Z,99.90
2018-10-07T04:26:39.957Z,99.90
2018-10-07T04:29:16.075Z,99.90
2018-10-07T04:31:52.057Z,99.90
2018-10-07T04:34:28.257Z,99.90
2018-10-07T04:37:04.193Z,99.90
2018-10-07T04:39:40.380Z,99.90
2018-10-07T04:42:16.606Z,99.90
2018-10-07T04:44:52.706Z,99.90
2018-10-07T04:47:28.661Z,99.90
2018-10-07T04:50:06.064Z,99.90
2018-10-07T04:52:42.229Z,99.90
2018-10-07T04:55:18.408Z,99.90
2018-10-07T04:57:54.566Z,99.90
2018-10-07T05:00:30.703Z,99.90
2018-10-07T05:03:06.900Z,99.90
2018-10-07T05:05:42.980Z,99.90
2018-10-07T05:08:19.034Z,99.90
2018-10-07T05:10:56.559Z,99.90
2018-10-07T05:13:46.944Z,99.90
2018-10-07T05:16:31.951Z,99.20
2018-10-07T05:19:08.045Z,99.30
2018-10-07T05:21:44.151Z,99.70
2018-10-07T05:24:20.380Z,99.60
2018-10-07T05:26:56.595Z,99.60
2018-10-07T05:29:32.654Z,99.70
2018-10-07T05:32:08.787Z,99.80
2018-10-07T05:34:45.023Z,99.70
2018-10-07T05:37:21.120Z,99.20
2018-10-07T05:39:57.220Z,98.90
2018-10-07T05:42:33.347Z,99.90
2018-10-07T05:45:09.549Z,99.90
2018-10-07T05:47:45.611Z,99.90
2018-10-07T05:50:21.823Z,99.90
2018-10-07T05:52:57.898Z,99.90
2018-10-07T05:55:34.158Z,99.90
2018-10-07T05:58:10.246Z,99.90
2018-10-07T06:00:46.475Z,99.90
2018-10-07T06:03:41.349Z,99.90
2018-10-07T06:06:17.351Z,99.90
2018-10-07T06:08:53.862Z,99.90
2018-10-07T06:11:30.011Z,99.90
2018-10-07T06:14:06.367Z,99.90
2018-10-07T06:16:42.566Z,99.90
2018-10-07T06:19:18.667Z,99.90
2018-10-07T06:21:55.048Z,99.10
2018-10-07T06:24:31.160Z,99.70
2018-10-07T06:27:07.707Z,98.70
2018-10-07T06:29:43.762Z,97.80
2018-10-07T06:32:19.946Z,96.00
2018-10-07T06:34:56.076Z,94.60
2018-10-07T06:37:32.143Z,92.10
2018-10-07T06:40:08.304Z,90.40
2018-10-07T06:42:44.641Z,87.40
2018-10-07T06:45:20.762Z,83.70
2018-10-07T06:47:56.830Z,81.50
2018-10-07T06:50:33.006Z,81.00
2018-10-07T06:53:09.228Z,79.10
2018-10-07T06:55:45.271Z,77.80
2018-10-07T06:58:21.440Z,76.40
2018-10-07T07:00:57.683Z,75.40
2018-10-07T07:03:33.812Z,75.00
2018-10-07T07:06:09.843Z,75.60
2018-10-07T07:08:46.041Z,72.90
2018-10-07T07:11:22.161Z,71.60
2018-10-07T07:13:58.350Z,73.50
2018-10-07T07:16:34.576Z,73.50
2018-10-07T07:19:10.618Z,73.10
2018-10-07T07:21:46.648Z,71.80
2018-10-07T07:24:22.780Z,72.50
2018-10-07T07:26:59.007Z,72.60
2018-10-07T07:29:35.639Z,72.30
2018-10-07T07:32:11.823Z,73.70
2018-10-07T07:34:47.987Z,72.60
2018-10-07T07:37:24.138Z,71.70
2018-10-07T07:40:00.092Z,71.00
2018-10-07T07:42:36.206Z,71.10
2018-10-07T07:45:12.430Z,71.10
2018-10-07T07:47:48.484Z,71.50
2018-10-07T07:50:24.490Z,70.90
2018-10-07T07:53:00.704Z,69.40
2018-10-07T07:55:36.990Z,68.20
2018-10-07T07:58:13.026Z,68.20
2018-10-07T08:00:49.095Z,66.80
2018-10-07T08:03:25.322Z,67.00
2018-10-07T08:06:01.521Z,66.80
2018-10-07T08:08:37.747Z,68.60
2018-10-07T08:11:13.699Z,68.70
2018-10-07T08:13:49.746Z,68.80
2018-10-07T08:16:25.899Z,68.90
2018-10-07T08:19:01.952Z,69.50
2018-10-07T08:21:38.143Z,69.20
2018-10-07T08:24:14.093Z,68.40
2018-10-07T08:26:50.379Z,68.20
2018-10-07T08:29:26.482Z,68.00
2018-10-07T08:32:02.629Z,67.40
2018-10-07T08:34:38.762Z,67.90
2018-10-07T08:37:14.947Z,67.10
2018-10-07T08:39:51.264Z,66.40
2018-10-07T08:42:27.267Z,65.70
2018-10-07T08:45:03.301Z,64.10
2018-10-07T08:47:39.497Z,63.20
2018-10-07T08:50:15.766Z,62.40
2018-10-07T08:52:51.931Z,60.50
2018-10-07T08:55:27.971Z,59.20
2018-10-07T08:58:04.317Z,58.20
2018-10-07T09:00:40.452Z,58.10
2018-10-07T09:03:16.753Z,57.40
2018-10-07T09:05:52.903Z,58.20
2018-10-07T09:08:29.080Z,56.40
2018-10-07T09:11:05.275Z,55.40
2018-10-07T09:13:41.290Z,55.00
2018-10-07T09:16:17.410Z,54.10
2018-10-07T09:18:53.539Z,53.80
2018-10-07T09:21:29.863Z,52.30
2018-10-07T09:24:05.888Z,51.10
2018-10-07T09:26:42.146Z,50.70
2018-10-07T09:29:18.249Z,50.70
2018-10-07T09:31:54.406Z,50.10
2018-10-07T09:34:30.582Z,50.70
2018-10-07T09:37:07.046Z,50.20
2018-10-07T09:39:43.123Z,48.60
2018-10-07T09:42:19.262Z,49.00
2018-10-07T09:44:55.421Z,50.10
2018-10-07T09:47:31.572Z,51.10
2018-10-07T09:50:07.740Z,52.20
2018-10-07T09:52:43.768Z,54.00
2018-10-07T09:55:19.883Z,54.20
2018-10-07T09:57:56.005Z,54.30
2018-10-07T10:00:37.360Z,54.30
2018-10-07T10:03:13.426Z,53.70
2018-10-07T10:05:49.675Z,53.50
2018-10-07T10:08:25.758Z,52.40
2018-10-07T10:11:01.974Z,53.00
2018-10-07T10:13:37.984Z,54.00
2018-10-07T10:16:14.020Z,54.40
2018-10-07T10:18:51.747Z,56.20
2018-10-07T10:21:44.070Z,57.60
2018-10-07T10:24:36.891Z,58.50
2018-10-07T10:27:33.216Z,59.40
2018-10-07T10:30:24.831Z,58.60
2018-10-07T10:33:18.247Z,57.00
2018-10-07T10:36:10.205Z,56.20
2018-10-07T10:39:07.236Z,56.40
2018-10-07T10:42:00.897Z,57.10
2018-10-07T10:44:46.656Z,55.20
2018-10-07T10:47:32.427Z,54.00
2018-10-07T10:50:39.265Z,51.80
2018-10-07T10:54:30.469Z,52.80
2018-10-07T10:57:17.190Z,51.30
2018-10-07T11:00:07.756Z,48.80
2018-10-07T11:02:57.157Z,49.80
2018-10-07T11:05:48.976Z,49.70
2018-10-07T11:08:37.896Z,47.30
2018-10-07T11:11:26.423Z,48.10
2018-10-07T11:14:58.742Z,48.00
2018-10-07T11:17:51.014Z,48.30
2018-10-07T11:20:38.356Z,49.70
2018-10-07T11:23:33.073Z,49.50
2018-10-07T11:27:26.202Z,50.50
2018-10-07T11:30:20.175Z,50.60
2018-10-07T11:33:13.724Z,51.60
2018-10-07T11:36:22.478Z,49.90
2018-10-07T11:39:17.612Z,47.90
2018-10-07T11:42:09.950Z,47.20
2018-10-07T11:44:57.181Z,46.40
2018-10-07T11:47:46.521Z,45.50
2018-10-07T11:50:51.183Z,45.20
2018-10-07T11:53:46.307Z,47.50
2018-10-07T11:56:22.435Z,48.80
2018-10-07T11:58:58.601Z,49.50
2018-10-07T12:01:34.851Z,49.80
2018-10-07T12:04:11.122Z,51.10
2018-10-07T12:06:47.311Z,51.00
2018-10-07T12:09:23.462Z,51.50
2018-10-07T12:11:59.437Z,51.90
2018-10-07T12:14:35.764Z,52.10
2018-10-07T12:17:11.913Z,51.90
2018-10-07T12:19:47.913Z,52.50
2018-10-07T12:22:24.183Z,52.60
2018-10-07T12:25:00.473Z,52.40
2018-10-07T12:27:36.583Z,52.50
2018-10-07T12:30:12.740Z,53.60
2018-10-07T12:32:48.768Z,53.90
2018-10-07T12:35:24.987Z,54.30
2018-10-07T12:38:01.108Z,54.30
2018-10-07T12:40:37.188Z,54.90
2018-10-07T12:43:13.339Z,55.00
2018-10-07T12:45:49.503Z,55.30
2018-10-07T12:48:25.682Z,54.50
2018-10-07T12:51:01.815Z,55.20
2018-10-07T12:53:37.997Z,55.30
2018-10-07T12:56:14.151Z,56.10
2018-10-07T12:58:50.238Z,56.30
2018-10-07T13:01:26.463Z,55.70
2018-10-07T13:04:02.721Z,56.10
2018-10-07T13:06:38.868Z,56.50
2018-10-07T13:09:15.566Z,56.10
2018-10-07T13:11:51.655Z,56.60
2018-10-07T13:14:27.907Z,56.30
2018-10-07T13:17:03.933Z,56.40
2018-10-07T13:19:40.146Z,56.30
2018-10-07T13:22:16.356Z,56.40
2018-10-07T13:24:52.417Z,56.90
2018-10-07T13:27:28.452Z,57.50
2018-10-07T13:30:05.479Z,58.00
2018-10-07T13:32:41.511Z,58.50
2018-10-07T13:35:17.541Z,58.70
2018-10-07T13:37:53.563Z,59.30
2018-10-07T13:40:29.679Z,58.80
2018-10-07T13:43:05.861Z,59.50
2018-10-07T13:45:41.878Z,59.60
2018-10-07T13:48:18.020Z,60.50
2018-10-07T13:50:54.185Z,60.40
2018-10-07T13:53:30.448Z,62.30
2018-10-07T13:56:06.671Z,62.10
2018-10-07T13:58:42.819Z,60.70
2018-10-07T14:01:18.946Z,61.40
2018-10-07T14:03:55.156Z,61.40
2018-10-07T14:06:31.344Z,60.80
2018-10-07T14:09:09.029Z,61.70
2018-10-07T14:11:44.965Z,62.00
2018-10-07T14:14:21.098Z,63.10
2018-10-07T14:16:57.363Z,63.90
2018-10-07T14:19:33.509Z,63.10
2018-10-07T14:22:09.711Z,63.00
2018-10-07T14:24:45.889Z,62.80
2018-10-07T14:27:22.033Z,63.00
2018-10-07T14:29:58.035Z,63.60
2018-10-07T14:32:34.276Z,64.20
2018-10-07T14:35:10.504Z,64.40
2018-10-07T14:37:46.666Z,64.30
2018-10-07T14:40:22.696Z,64.40
2018-10-07T14:42:58.998Z,64.50
2018-10-07T14:45:34.939Z,64.70
2018-10-07T14:48:11.099Z,64.50
2018-10-07T14:50:47.456Z,64.20
2018-10-07T14:53:23.497Z,63.90
2018-10-07T14:55:59.496Z,63.20
2018-10-07T14:58:35.931Z,62.40
2018-10-07T15:01:12.295Z,61.50
2018-10-07T15:03:48.460Z,60.60
2018-10-07T15:06:24.701Z,60.70
2018-10-07T15:09:00.882Z,60.10
2018-10-07T15:11:37.099Z,60.20
2018-10-07T15:14:13.319Z,59.70
2018-10-07T15:16:49.487Z,59.80
2018-10-07T15:19:25.514Z,59.90
2018-10-07T15:22:01.669Z,60.20
2018-10-07T15:24:37.856Z,59.60
2018-10-07T15:27:14.055Z,59.20
2018-10-07T15:29:50.299Z,59.60
2018-10-07T15:32:26.228Z,59.40
2018-10-07T15:35:02.343Z,59.30
2018-10-07T15:37:38.467Z,58.60
2018-10-07T15:40:14.592Z,58.40
2018-10-07T15:42:50.763Z,58.60
2018-10-07T15:45:26.939Z,59.10
2018-10-07T15:48:03.075Z,59.40
2018-10-07T15:50:39.086Z,60.10
2018-10-07T15:53:15.201Z,59.30
2018-10-07T15:55:51.411Z,59.00
2018-10-07T15:58:27.613Z,58.60
2018-10-07T16:01:03.681Z,59.50
2018-10-07T16:03:39.896Z,60.10
2018-10-07T16:06:15.958Z,59.90
2018-10-07T16:08:52.126Z,60.50
2018-10-07T16:11:28.240Z,60.60
2018-10-07T16:14:04.569Z,61.50
2018-10-07T16:16:40.667Z,62.00
2018-10-07T16:19:16.679Z,62.20
2018-10-07T16:21:52.703Z,62.20
2018-10-07T16:24:28.914Z,62.00
2018-10-07T16:27:05.053Z,61.30
2018-10-07T16:29:41.284Z,60.90
2018-10-07T16:32:17.383Z,60.60
2018-10-07T16:34:53.458Z,61.10
2018-10-07T16:37:29.441Z,60.50
2018-10-07T16:40:05.582Z,61.60
2018-10-07T16:42:41.767Z,61.20
2018-10-07T16:45:17.932Z,62.10
2018-10-07T16:47:54.057Z,62.30
2018-10-07T16:50:30.250Z,62.60
2018-10-07T16:53:06.404Z,62.80
2018-10-07T16:55:42.749Z,63.50
2018-10-07T16:58:18.852Z,63.70
2018-10-07T17:00:54.994Z,63.50
2018-10-07T17:03:31.200Z,63.40
2018-10-07T17:06:07.425Z,63.50
2018-10-07T17:08:43.526Z,64.00
2018-10-07T17:11:19.730Z,63.20
2018-10-07T17:13:55.903Z,63.20
2018-10-07T17:16:32.059Z,63.70
2018-10-07T17:19:08.205Z,63.10
2018-10-07T17:21:44.379Z,63.00
2018-10-07T17:24:20.553Z,62.50
2018-10-07T17:26:56.610Z,62.50
2018-10-07T17:29:32.757Z,62.30
2018-10-07T17:32:08.920Z,61.90
2018-10-07T17:34:44.952Z,62.50
2018-10-07T17:37:21.056Z,62.10
2018-10-07T17:39:57.226Z,62.00
2018-10-07T17:42:33.465Z,62.10
2018-10-07T17:45:09.534Z,61.30
2018-10-07T17:47:45.622Z,61.60
2018-10-07T17:50:21.964Z,62.60
2018-10-07T17:52:58.202Z,61.80
2018-10-07T17:55:34.421Z,62.10
2018-10-07T17:58:10.629Z,62.90
2018-10-07T18:00:46.741Z,63.90
2018-10-07T18:03:22.740Z,64.00
2018-10-07T18:05:58.814Z,64.30
2018-10-07T18:08:35.044Z,65.10
2018-10-07T18:11:11.214Z,65.80
2018-10-07T18:13:47.337Z,66.10
2018-10-07T18:16:23.563Z,66.90
2018-10-07T18:18:59.712Z,67.30
2018-10-07T18:21:35.825Z,68.00
2018-10-07T18:24:12.054Z,68.20
2018-10-07T18:26:48.176Z,69.00
2018-10-07T18:29:24.470Z,69.40
2018-10-07T18:32:00.629Z,69.70
2018-10-07T18:34:36.860Z,69.80
2018-10-07T18:37:13.625Z,69.90
2018-10-07T18:39:49.590Z,70.10
2018-10-07T18:42:25.746Z,69.90
2018-10-07T18:45:01.928Z,70.10
2018-10-07T18:47:38.125Z,70.30
2018-10-07T18:50:14.164Z,70.40
2018-10-07T18:52:50.294Z,70.70
2018-10-07T18:55:26.371Z,71.00
2018-10-07T18:58:02.423Z,70.70
2018-10-07T19:00:38.531Z,70.90
2018-10-07T19:03:14.746Z,71.20
2018-10-07T19:05:50.715Z,71.40
2018-10-07T19:08:26.865Z,71.40
2018-10-07T19:11:03.034Z,71.70
2018-10-07T19:13:39.204Z,71.70
2018-10-07T19:16:15.264Z,71.80
2018-10-07T19:18:51.437Z,71.90
2018-10-07T19:21:27.568Z,71.40
2018-10-07T19:24:03.761Z,71.70
2018-10-07T19:26:39.791Z,71.80
2018-10-07T19:29:15.956Z,72.20
2018-10-07T19:31:52.130Z,72.50
2018-10-07T19:34:28.248Z,72.50
2018-10-07T19:37:04.503Z,72.70
2018-10-07T19:39:40.490Z,72.80
2018-10-07T19:42:16.635Z,73.30
2018-10-07T19:44:52.935Z,73.50
2018-10-07T19:47:28.953Z,73.70
2018-10-07T19:50:05.009Z,73.90
2018-10-07T19:52:41.182Z,73.70
2018-10-07T19:55:17.209Z,74.20
2018-10-07T19:57:53.224Z,74.20
2018-10-07T20:00:29.366Z,74.20
2018-10-07T20:03:05.545Z,74.30
2018-10-07T20:05:42.180Z,74.70
2018-10-07T20:08:18.240Z,74.40
2018-10-07T20:10:55.173Z,74.90
2018-10-07T20:13:31.229Z,75.00
2018-10-07T20:16:07.426Z,75.10
2018-10-07T20:18:43.527Z,75.00
2018-10-07T20:21:19.654Z,75.30
2018-10-07T20:23:55.834Z,75.50
2018-10-07T20:26:31.801Z,75.70
2018-10-07T20:29:08.006Z,75.80
2018-10-07T20:31:44.088Z,75.90
2018-10-07T20:34:20.289Z,76.00
2018-10-07T20:36:56.458Z,76.30
2018-10-07T20:39:32.480Z,76.50
2018-10-07T20:42:08.605Z,76.50
2018-10-07T20:44:44.776Z,76.80
2018-10-07T20:47:20.775Z,76.90
2018-10-07T20:49:56.821Z,76.80
2018-10-07T20:52:32.993Z,77.40
2018-10-07T20:55:09.282Z,77.30
2018-10-07T20:57:45.293Z,77.30
2018-10-07T21:00:21.468Z,77.40
2018-10-07T21:02:57.567Z,77.70
2018-10-07T21:05:33.779Z,77.30
2018-10-07T21:08:09.970Z,77.30
2018-10-07T21:10:45.958Z,77.30
2018-10-07T21:13:22.176Z,77.40
2018-10-07T21:15:58.351Z,77.20
2018-10-07T21:18:34.382Z,76.90
2018-10-07T21:21:10.524Z,76.90
2018-10-07T21:23:46.691Z,76.70
2018-10-07T21:26:22.862Z,76.80
2018-10-07T21:28:58.899Z,77.00
2018-10-07T21:31:35.106Z,76.60
2018-10-07T21:34:11.385Z,76.70
2018-10-07T21:36:47.518Z,76.60
2018-10-07T21:39:23.694Z,76.50
2018-10-07T21:41:59.773Z,76.50
2018-10-07T21:44:35.805Z,76.30
2018-10-07T21:47:11.912Z,76.70
2018-10-07T21:49:48.013Z,76.40
2018-10-07T21:52:24.104Z,76.20
2018-10-07T21:55:00.226Z,76.20
2018-10-07T21:57:36.249Z,76.40
2018-10-07T22:00:12.495Z,76.30
2018-10-07T22:02:48.588Z,76.20
2018-10-07T22:05:24.558Z,76.30
2018-10-07T22:08:00.737Z,76.20
2018-10-07T22:10:37.005Z,76.40
2018-10-07T22:13:13.034Z,76.10
2018-10-07T22:15:49.180Z,76.30
2018-10-07T22:18:25.388Z,76.10
2018-10-07T22:21:01.520Z,76.00
2018-10-07T22:23:37.717Z,76.10
2018-10-07T22:26:13.977Z,75.90
2018-10-07T22:28:50.065Z,76.00
2018-10-07T22:31:26.196Z,76.00
2018-10-07T22:34:02.347Z,76.20
2018-10-07T22:36:38.322Z,76.30
2018-10-07T22:39:14.546Z,76.70
2018-10-07T22:41:50.695Z,77.00
2018-10-07T22:44:26.866Z,77.30
2018-10-07T22:47:03.024Z,77.30
2018-10-07T22:49:39.209Z,77.50
2018-10-07T22:52:15.296Z,78.00
2018-10-07T22:54:51.400Z,78.40
2018-10-07T22:57:27.464Z,78.40
2018-10-07T23:00:03.502Z,78.60
2018-10-07T23:02:39.826Z,79.00
2018-10-07T23:05:15.869Z,79.40
2018-10-07T23:07:51.923Z,79.90
2018-10-07T23:10:28.048Z,80.00
2018-10-07T23:13:04.183Z,80.40
2018-10-07T23:15:40.269Z,80.70
2018-10-07T23:18:16.430Z,80.80
2018-10-07T23:20:52.590Z,80.70
2018-10-07T23:23:28.790Z,80.90
2018-10-07T23:26:05.028Z,81.30
2018-10-07T23:28:41.064Z,81.20
2018-10-07T23:31:17.273Z,81.30
2018-10-07T23:33:53.402Z,81.70
2018-10-07T23:36:29.416Z,81.90
2018-10-07T23:39:09.680Z,82.00
2018-10-07T23:41:45.711Z,81.90
2018-10-07T23:44:21.840Z,82.30
2018-10-07T23:46:57.971Z,82.30
2018-10-07T23:49:34.136Z,82.50
2018-10-07T23:52:10.354Z,82.60
2018-10-07T23:54:46.467Z,83.20
2018-10-07T23:57:22.627Z,83.20
2018-10-07T23:59:58.805Z,83.30
